sensor_id;sensor_type;location;lat;lon;timestamp;pressure;altitude;pressure_sealevel;temperature;humidity
46534;BME280;32260;52.008;4.752;2023-07-08T00:02:11;101807.78;;;20.88;55.66
46534;BME280;32260;52.008;4.752;2023-07-08T00:04:38;101798.19;;;20.82;55.64
46534;BME280;32260;52.008;4.752;2023-07-08T00:07:05;101803.72;;;20.79;55.83
46534;BME280;32260;52.008;4.752;2023-07-08T00:09:36;101803.88;;;20.76;55.80
46534;BME280;32260;52.008;4.752;2023-07-08T00:12:08;101792.38;;;20.73;56.50
46534;BME280;32260;52.008;4.752;2023-07-08T00:14:35;101789.00;;;20.67;55.54
46534;BME280;32260;52.008;4.752;2023-07-08T00:17:01;101789.28;;;20.61;55.84
46534;BME280;32260;52.008;4.752;2023-07-08T00:19:28;101790.31;;;20.59;55.56
46534;BME280;32260;52.008;4.752;2023-07-08T00:21:54;101792.19;;;20.57;55.24
46534;BME280;32260;52.008;4.752;2023-07-08T00:24:20;101786.94;;;20.53;55.06
46534;BME280;32260;52.008;4.752;2023-07-08T00:26:46;101776.41;;;20.49;55.89
46534;BME280;32260;52.008;4.752;2023-07-08T00:29:12;101779.22;;;20.46;55.56
46534;BME280;32260;52.008;4.752;2023-07-08T00:31:41;101781.19;;;20.42;56.25
46534;BME280;32260;52.008;4.752;2023-07-08T00:34:07;101788.53;;;20.39;56.23
46534;BME280;32260;52.008;4.752;2023-07-08T00:36:34;101782.44;;;20.35;55.90
46534;BME280;32260;52.008;4.752;2023-07-08T00:39:01;101783.41;;;20.32;55.99
46534;BME280;32260;52.008;4.752;2023-07-08T00:41:32;101788.03;;;20.30;56.02
46534;BME280;32260;52.008;4.752;2023-07-08T00:44:00;101782.75;;;20.27;55.53
46534;BME280;32260;52.008;4.752;2023-07-08T00:51:44;101781.38;;;20.18;55.95
46534;BME280;32260;52.008;4.752;2023-07-08T00:54:12;101775.25;;;20.15;56.95
46534;BME280;32260;52.008;4.752;2023-07-08T00:56:43;101769.09;;;20.13;57.02
46534;BME280;32260;52.008;4.752;2023-07-08T01:01:52;101766.75;;;20.05;56.40
46534;BME280;32260;52.008;4.752;2023-07-08T01:04:25;101766.81;;;20.03;56.60
46534;BME280;32260;52.008;4.752;2023-07-08T01:06:55;101767.72;;;20.02;56.88
46534;BME280;32260;52.008;4.752;2023-07-08T01:09:43;101763.97;;;20.07;57.57
46534;BME280;32260;52.008;4.752;2023-07-08T01:12:14;101768.75;;;20.00;56.82
46534;BME280;32260;52.008;4.752;2023-07-08T01:14:43;101767.06;;;19.97;56.70
46534;BME280;32260;52.008;4.752;2023-07-08T01:17:10;101765.34;;;19.96;56.48
46534;BME280;32260;52.008;4.752;2023-07-08T01:19:40;101762.78;;;19.93;56.55
46534;BME280;32260;52.008;4.752;2023-07-08T01:22:08;101759.22;;;19.93;57.06
46534;BME280;32260;52.008;4.752;2023-07-08T01:24:36;101757.59;;;19.88;56.80
46534;BME280;32260;52.008;4.752;2023-07-08T01:27:07;101754.06;;;19.88;56.96
46534;BME280;32260;52.008;4.752;2023-07-08T01:29:34;101748.00;;;19.83;57.12
46534;BME280;32260;52.008;4.752;2023-07-08T01:32:00;101751.72;;;19.79;57.42
46534;BME280;32260;52.008;4.752;2023-07-08T01:34:30;101755.38;;;19.78;57.16
46534;BME280;32260;52.008;4.752;2023-07-08T01:36:57;101759.00;;;19.77;57.99
46534;BME280;32260;52.008;4.752;2023-07-08T01:39:26;101759.94;;;19.76;57.51
46534;BME280;32260;52.008;4.752;2023-07-08T01:41:52;101753.75;;;19.73;57.39
46534;BME280;32260;52.008;4.752;2023-07-08T01:44:36;101752.75;;;19.76;57.35
46534;BME280;32260;52.008;4.752;2023-07-08T01:47:13;101745.69;;;19.73;57.58
46534;BME280;32260;52.008;4.752;2023-07-08T01:49:42;101744.19;;;19.66;57.52
46534;BME280;32260;52.008;4.752;2023-07-08T01:52:09;101737.63;;;19.73;57.19
46534;BME280;32260;52.008;4.752;2023-07-08T01:54:36;101743.25;;;19.67;57.07
46534;BME280;32260;52.008;4.752;2023-07-08T01:57:03;101733.78;;;19.59;57.16
46534;BME280;32260;52.008;4.752;2023-07-08T01:59:29;101736.56;;;19.57;57.20
46534;BME280;32260;52.008;4.752;2023-07-08T02:01:55;101733.03;;;19.55;56.80
46534;BME280;32260;52.008;4.752;2023-07-08T02:04:23;101725.06;;;19.53;56.98
46534;BME280;32260;52.008;4.752;2023-07-08T02:06:53;101731.31;;;19.54;57.30
46534;BME280;32260;52.008;4.752;2023-07-08T02:09:19;101716.19;;;19.51;57.34
46534;BME280;32260;52.008;4.752;2023-07-08T02:11:45;101720.69;;;19.51;57.13
46534;BME280;32260;52.008;4.752;2023-07-08T02:14:11;101718.16;;;19.48;57.14
46534;BME280;32260;52.008;4.752;2023-07-08T02:16:37;101718.28;;;19.45;57.01
46534;BME280;32260;52.008;4.752;2023-07-08T02:19:03;101715.72;;;19.42;56.91
46534;BME280;32260;52.008;4.752;2023-07-08T02:21:29;101712.22;;;19.39;58.06
46534;BME280;32260;52.008;4.752;2023-07-08T02:23:57;101705.25;;;19.35;57.57
46534;BME280;32260;52.008;4.752;2023-07-08T02:26:24;101705.38;;;19.32;58.03
46534;BME280;32260;52.008;4.752;2023-07-08T02:28:52;101704.44;;;19.33;57.46
46534;BME280;32260;52.008;4.752;2023-07-08T02:31:19;101709.13;;;19.28;57.96
46534;BME280;32260;52.008;4.752;2023-07-08T02:33:45;101710.13;;;19.26;58.17
46534;BME280;32260;52.008;4.752;2023-07-08T02:36:11;101705.78;;;19.23;58.02
46534;BME280;32260;52.008;4.752;2023-07-08T02:38:37;101700.66;;;19.17;58.93
46534;BME280;32260;52.008;4.752;2023-07-08T02:41:03;101699.91;;;19.13;58.80
46534;BME280;32260;52.008;4.752;2023-07-08T02:43:29;101700.91;;;19.11;58.37
46534;BME280;32260;52.008;4.752;2023-07-08T02:45:55;101709.91;;;19.10;58.97
46534;BME280;32260;52.008;4.752;2023-07-08T02:48:21;101704.66;;;19.06;58.80
46534;BME280;32260;52.008;4.752;2023-07-08T02:50:47;101690.44;;;19.04;58.13
46534;BME280;32260;52.008;4.752;2023-07-08T02:53:13;101695.88;;;19.03;58.50
46534;BME280;32260;52.008;4.752;2023-07-08T02:55:40;101704.78;;;19.03;58.17
46534;BME280;32260;52.008;4.752;2023-07-08T02:58:08;101696.81;;;19.02;58.52
46534;BME280;32260;52.008;4.752;2023-07-08T03:00:35;101696.81;;;19.02;58.56
46534;BME280;32260;52.008;4.752;2023-07-08T03:03:03;101695.91;;;19.01;58.49
46534;BME280;32260;52.008;4.752;2023-07-08T03:05:30;101693.31;;;19.00;58.21
46534;BME280;32260;52.008;4.752;2023-07-08T03:07:56;101704.03;;;19.00;58.62
46534;BME280;32260;52.008;4.752;2023-07-08T03:10:22;101709.50;;;18.98;57.96
46534;BME280;32260;52.008;4.752;2023-07-08T03:12:48;101696.13;;;18.97;58.02
46534;BME280;32260;52.008;4.752;2023-07-08T03:15:15;101696.16;;;18.95;58.34
46534;BME280;32260;52.008;4.752;2023-07-08T03:17:41;101696.16;;;18.95;58.35
46534;BME280;32260;52.008;4.752;2023-07-08T03:20:08;101696.16;;;18.95;58.86
46534;BME280;32260;52.008;4.752;2023-07-08T03:22:34;101704.31;;;18.94;58.35
46534;BME280;32260;52.008;4.752;2023-07-08T03:25:00;101699.00;;;18.92;58.43
46534;BME280;32260;52.008;4.752;2023-07-08T03:27:26;101706.16;;;18.91;58.63
46534;BME280;32260;52.008;4.752;2023-07-08T03:29:52;101708.56;;;18.99;58.94
46534;BME280;32260;52.008;4.752;2023-07-08T03:32:21;101704.72;;;19.05;58.47
46534;BME280;32260;52.008;4.752;2023-07-08T03:34:47;101710.16;;;19.03;57.91
46534;BME280;32260;52.008;4.752;2023-07-08T03:37:13;101709.22;;;19.04;57.89
46534;BME280;32260;52.008;4.752;2023-07-08T03:39:39;101713.34;;;18.91;58.83
46534;BME280;32260;52.008;4.752;2023-07-08T03:42:06;101709.81;;;18.89;58.77
46534;BME280;32260;52.008;4.752;2023-07-08T03:44:32;101713.47;;;18.88;58.78
46534;BME280;32260;52.008;4.752;2023-07-08T03:46:58;101718.84;;;18.88;59.08
46534;BME280;32260;52.008;4.752;2023-07-08T03:49:24;101713.47;;;18.88;58.48
46534;BME280;32260;52.008;4.752;2023-07-08T03:51:53;101713.94;;;18.99;58.18
46534;BME280;32260;52.008;4.752;2023-07-08T03:54:21;101717.22;;;19.06;58.50
46534;BME280;32260;52.008;4.752;2023-07-08T03:56:48;101720.75;;;19.06;58.77
46534;BME280;32260;52.008;4.752;2023-07-08T03:59:14;101722.53;;;19.07;58.36
46534;BME280;32260;52.008;4.752;2023-07-08T04:01:40;101725.28;;;19.06;58.33
46534;BME280;32260;52.008;4.752;2023-07-08T04:04:08;101722.53;;;19.07;58.00
46534;BME280;32260;52.008;4.752;2023-07-08T04:06:37;101730.53;;;19.09;58.02
46534;BME280;32260;52.008;4.752;2023-07-08T04:09:03;101726.84;;;19.12;57.87
46534;BME280;32260;52.008;4.752;2023-07-08T04:11:29;101723.16;;;19.14;57.70
46534;BME280;32260;52.008;4.752;2023-07-08T04:13:55;101719.47;;;19.17;57.74
46534;BME280;32260;52.008;4.752;2023-07-08T04:16:27;101715.69;;;19.21;57.97
46534;BME280;32260;52.008;4.752;2023-07-08T04:18:54;101713.00;;;19.21;57.61
46534;BME280;32260;52.008;4.752;2023-07-08T04:21:22;101717.78;;;19.14;58.10
46534;BME280;32260;52.008;4.752;2023-07-08T04:23:48;101715.13;;;19.13;58.27
46534;BME280;32260;52.008;4.752;2023-07-08T04:26:15;101715.13;;;19.13;58.57
46534;BME280;32260;52.008;4.752;2023-07-08T04:28:42;101724.63;;;19.21;58.73
46534;BME280;32260;52.008;4.752;2023-07-08T04:31:08;101727.13;;;19.26;58.20
46534;BME280;32260;52.008;4.752;2023-07-08T04:33:34;101724.31;;;19.29;57.87
46534;BME280;32260;52.008;4.752;2023-07-08T04:36:00;101728.13;;;19.23;58.04
46534;BME280;32260;52.008;4.752;2023-07-08T04:38:26;101721.06;;;19.21;58.13
46534;BME280;32260;52.008;4.752;2023-07-08T04:40:53;101716.53;;;19.23;58.30
46534;BME280;32260;52.008;4.752;2023-07-08T04:43:20;101709.31;;;19.23;58.65
46534;BME280;32260;52.008;4.752;2023-07-08T04:45:49;101719.06;;;19.26;59.02
46534;BME280;32260;52.008;4.752;2023-07-08T04:48:18;101718.13;;;19.27;58.92
46534;BME280;32260;52.008;4.752;2023-07-08T04:50:49;101721.63;;;19.29;58.73
46534;BME280;32260;52.008;4.752;2023-07-08T04:53:16;101726.00;;;19.32;58.70
46534;BME280;32260;52.008;4.752;2023-07-08T04:55:45;101723.09;;;19.36;58.63
46534;BME280;32260;52.008;4.752;2023-07-08T04:58:12;101742.72;;;19.38;58.52
46534;BME280;32260;52.008;4.752;2023-07-08T05:00:39;101737.22;;;19.42;58.31
46534;BME280;32260;52.008;4.752;2023-07-08T05:03:05;101729.03;;;19.45;58.23
46534;BME280;32260;52.008;4.752;2023-07-08T05:05:31;101727.94;;;19.49;58.43
46534;BME280;32260;52.008;4.752;2023-07-08T05:07:57;101718.88;;;19.51;58.32
46534;BME280;32260;52.008;4.752;2023-07-08T05:10:23;101717.88;;;19.54;58.38
46534;BME280;32260;52.008;4.752;2023-07-08T05:12:49;101724.88;;;19.58;58.27
46534;BME280;32260;52.008;4.752;2023-07-08T05:15:16;101722.03;;;19.61;58.08
46534;BME280;32260;52.008;4.752;2023-07-08T05:17:42;101716.44;;;19.66;58.03
46534;BME280;32260;52.008;4.752;2023-07-08T05:20:11;101718.94;;;19.70;58.08
46534;BME280;32260;52.008;4.752;2023-07-08T05:22:38;101721.44;;;19.75;58.25
46534;BME280;32260;52.008;4.752;2023-07-08T05:25:05;101714.06;;;19.79;57.79
46534;BME280;32260;52.008;4.752;2023-07-08T05:27:32;101719.34;;;19.82;58.04
46534;BME280;32260;52.008;4.752;2023-07-08T05:30:00;101720.03;;;19.87;57.95
46534;BME280;32260;52.008;4.752;2023-07-08T05:32:27;101727.00;;;19.91;57.81
46534;BME280;32260;52.008;4.752;2023-07-08T05:34:53;101723.19;;;19.97;57.85
46534;BME280;32260;52.008;4.752;2023-07-08T05:37:20;101725.66;;;20.01;57.70
46534;BME280;32260;52.008;4.752;2023-07-08T05:39:51;101720.94;;;20.07;57.24
46534;BME280;32260;52.008;4.752;2023-07-08T05:42:19;101722.47;;;20.12;57.55
46534;BME280;32260;52.008;4.752;2023-07-08T05:44:45;101724.94;;;20.17;57.41
46534;BME280;32260;52.008;4.752;2023-07-08T05:47:12;101725.59;;;20.22;57.06
46534;BME280;32260;52.008;4.752;2023-07-08T05:49:38;101724.53;;;20.26;56.98
46534;BME280;32260;52.008;4.752;2023-07-08T05:52:04;101729.75;;;20.29;56.98
46534;BME280;32260;52.008;4.752;2023-07-08T05:54:37;101732.16;;;20.35;56.67
46534;BME280;32260;52.008;4.752;2023-07-08T05:57:03;101723.06;;;20.38;57.01
46534;BME280;32260;52.008;4.752;2023-07-08T05:59:29;101724.59;;;20.44;56.71
46534;BME280;32260;52.008;4.752;2023-07-08T06:01:55;101724.38;;;20.48;57.58
46534;BME280;32260;52.008;4.752;2023-07-08T06:04:21;101721.47;;;20.53;56.88
46534;BME280;32260;52.008;4.752;2023-07-08T06:06:48;101732.88;;;20.58;56.66
46534;BME280;32260;52.008;4.752;2023-07-08T06:09:14;101737.03;;;20.65;56.55
46534;BME280;32260;52.008;4.752;2023-07-08T06:11:40;101730.53;;;20.71;56.57
46534;BME280;32260;52.008;4.752;2023-07-08T06:14:06;101719.50;;;20.76;56.46
46534;BME280;32260;52.008;4.752;2023-07-08T06:16:32;101723.63;;;20.83;56.33
46534;BME280;32260;52.008;4.752;2023-07-08T06:19:00;101719.78;;;20.89;56.56
46534;BME280;32260;52.008;4.752;2023-07-08T06:21:26;101723.91;;;20.96;56.04
46534;BME280;32260;52.008;4.752;2023-07-08T06:23:53;101726.22;;;21.04;56.06
46534;BME280;32260;52.008;4.752;2023-07-08T06:26:19;101720.53;;;21.10;55.98
46534;BME280;32260;52.008;4.752;2023-07-08T06:28:45;101726.47;;;21.16;55.73
46534;BME280;32260;52.008;4.752;2023-07-08T06:31:11;101724.28;;;21.25;55.71
46534;BME280;32260;52.008;4.752;2023-07-08T06:33:37;101719.44;;;21.31;55.60
46534;BME280;32260;52.008;4.752;2023-07-08T06:36:03;101718.06;;;21.40;55.46
46534;BME280;32260;52.008;4.752;2023-07-08T06:38:30;101715.91;;;21.47;55.37
46534;BME280;32260;52.008;4.752;2023-07-08T06:40:56;101710.22;;;21.53;55.03
46534;BME280;32260;52.008;4.752;2023-07-08T06:43:22;101717.88;;;21.62;54.96
46534;BME280;32260;52.008;4.752;2023-07-08T06:45:48;101724.50;;;21.73;54.84
46534;BME280;32260;52.008;4.752;2023-07-08T06:48:14;101713.25;;;21.82;54.56
46534;BME280;32260;52.008;4.752;2023-07-08T06:50:45;101719.25;;;21.87;55.33
46534;BME280;32260;52.008;4.752;2023-07-08T06:53:11;101713.19;;;22.00;54.49
46534;BME280;32260;52.008;4.752;2023-07-08T06:55:37;101719.97;;;22.07;54.51
46534;BME280;32260;52.008;4.752;2023-07-08T06:58:04;101708.59;;;22.18;54.15
46534;BME280;32260;52.008;4.752;2023-07-08T07:00:30;101707.31;;;22.25;54.10
46534;BME280;32260;52.008;4.752;2023-07-08T07:02:56;101703.38;;;22.30;53.57
46534;BME280;32260;52.008;4.752;2023-07-08T07:05:22;101710.06;;;22.41;53.48
46534;BME280;32260;52.008;4.752;2023-07-08T07:07:52;101707.78;;;22.49;53.44
46534;BME280;32260;52.008;4.752;2023-07-08T07:10:21;101714.41;;;22.59;53.12
46534;BME280;32260;52.008;4.752;2023-07-08T07:12:47;101703.25;;;22.66;53.08
46534;BME280;32260;52.008;4.752;2023-07-08T07:15:13;101709.00;;;22.75;53.20
46534;BME280;32260;52.008;4.752;2023-07-08T07:17:39;101702.38;;;22.81;52.93
46534;BME280;32260;52.008;4.752;2023-07-08T07:20:06;101698.34;;;22.88;52.98
46534;BME280;32260;52.008;4.752;2023-07-08T07:22:32;101701.84;;;22.90;52.41
46534;BME280;32260;52.008;4.752;2023-07-08T07:24:59;101700.22;;;23.02;52.10
46534;BME280;32260;52.008;4.752;2023-07-08T07:27:25;101695.16;;;23.12;52.52
46534;BME280;32260;52.008;4.752;2023-07-08T07:29:51;101691.91;;;23.21;52.53
46534;BME280;32260;52.008;4.752;2023-07-08T07:32:21;101697.75;;;23.30;52.36
46534;BME280;32260;52.008;4.752;2023-07-08T07:34:52;101697.19;;;23.39;52.26
46534;BME280;32260;52.008;4.752;2023-07-08T07:37:20;101704.66;;;23.50;52.10
46534;BME280;32260;52.008;4.752;2023-07-08T07:39:47;101702.25;;;23.59;52.10
46534;BME280;32260;52.008;4.752;2023-07-08T07:42:15;101698.97;;;23.69;51.64
46534;BME280;32260;52.008;4.752;2023-07-08T07:44:41;101702.84;;;23.79;51.97
46534;BME280;32260;52.008;4.752;2023-07-08T07:47:09;101695.03;;;23.89;51.91
46534;BME280;32260;52.008;4.752;2023-07-08T07:49:38;101692.72;;;23.97;51.45
46534;BME280;32260;52.008;4.752;2023-07-08T07:52:05;101693.81;;;24.09;51.73
46534;BME280;32260;52.008;4.752;2023-07-08T07:54:31;101694.09;;;24.19;51.41
46534;BME280;32260;52.008;4.752;2023-07-08T07:56:57;101682.53;;;24.30;51.31
46534;BME280;32260;52.008;4.752;2023-07-08T07:59:24;101688.13;;;24.41;51.30
46534;BME280;32260;52.008;4.752;2023-07-08T08:01:50;101695.66;;;24.50;50.39
46534;BME280;32260;52.008;4.752;2023-07-08T08:04:16;101693.97;;;24.62;50.56
46534;BME280;32260;52.008;4.752;2023-07-08T08:06:43;101693.53;;;24.70;49.51
46534;BME280;32260;52.008;4.752;2023-07-08T08:09:09;101701.88;;;24.80;50.11
46534;BME280;32260;52.008;4.752;2023-07-08T08:11:35;101699.53;;;24.88;49.09
46534;BME280;32260;52.008;4.752;2023-07-08T08:14:01;101706.84;;;25.00;50.03
46534;BME280;32260;52.008;4.752;2023-07-08T08:16:29;101706.97;;;25.12;49.82
46534;BME280;32260;52.008;4.752;2023-07-08T08:18:56;101713.50;;;25.22;49.41
46534;BME280;32260;52.008;4.752;2023-07-08T08:21:22;101707.34;;;25.33;49.42
46534;BME280;32260;52.008;4.752;2023-07-08T08:23:48;101705.66;;;25.45;49.32
46534;BME280;32260;52.008;4.752;2023-07-08T08:26:14;101698.72;;;25.54;49.72
46534;BME280;32260;52.008;4.752;2023-07-08T08:28:41;101698.84;;;25.65;49.57
46534;BME280;32260;52.008;4.752;2023-07-08T08:31:07;101697.31;;;25.74;49.12
46534;BME280;32260;52.008;4.752;2023-07-08T08:33:33;101704.72;;;25.84;48.94
46534;BME280;32260;52.008;4.752;2023-07-08T08:35:59;101711.22;;;25.95;48.56
46534;BME280;32260;52.008;4.752;2023-07-08T08:38:25;101707.75;;;26.06;48.54
46534;BME280;32260;52.008;4.752;2023-07-08T08:40:51;101709.03;;;26.13;47.94
46534;BME280;32260;52.008;4.752;2023-07-08T08:43:20;101709.88;;;26.26;48.44
46534;BME280;32260;52.008;4.752;2023-07-08T08:45:55;101708.13;;;26.38;48.34
46534;BME280;32260;52.008;4.752;2023-07-08T08:48:22;101704.97;;;26.44;47.00
46534;BME280;32260;52.008;4.752;2023-07-08T08:50:52;101704.25;;;26.54;47.22
46534;BME280;32260;52.008;4.752;2023-07-08T08:53:21;101707.28;;;26.62;47.28
46534;BME280;32260;52.008;4.752;2023-07-08T08:56:09;101708.44;;;26.71;46.47
46534;BME280;32260;52.008;4.752;2023-07-08T09:01:17;101697.31;;;26.87;47.12
46534;BME280;32260;52.008;4.752;2023-07-08T09:06:26;101687.72;;;27.05;46.61
46534;BME280;32260;52.008;4.752;2023-07-08T09:08:54;101691.50;;;27.16;46.69
46534;BME280;32260;52.008;4.752;2023-07-08T09:11:53;101689.44;;;27.31;46.45
46534;BME280;32260;52.008;4.752;2023-07-08T09:14:26;101705.16;;;27.38;46.50
46534;BME280;32260;52.008;4.752;2023-07-08T09:19:41;101698.31;;;27.57;46.17
46534;BME280;32260;52.008;4.752;2023-07-08T09:22:17;101696.56;;;27.67;45.98
46534;BME280;32260;52.008;4.752;2023-07-08T09:27:25;101708.59;;;27.87;45.92
46534;BME280;32260;52.008;4.752;2023-07-08T09:29:51;101706.88;;;27.98;44.61
46534;BME280;32260;52.008;4.752;2023-07-08T09:34:55;101708.88;;;28.18;45.37
46534;BME280;32260;52.008;4.752;2023-07-08T09:37:26;101720.66;;;28.30;45.03
46534;BME280;32260;52.008;4.752;2023-07-08T09:39:53;101711.84;;;28.38;44.68
46534;BME280;32260;52.008;4.752;2023-07-08T09:42:22;101705.22;;;28.52;44.57
46534;BME280;32260;52.008;4.752;2023-07-08T09:44:56;101706.31;;;28.61;44.68
46534;BME280;32260;52.008;4.752;2023-07-08T09:47:26;101706.47;;;28.70;44.05
46534;BME280;32260;52.008;4.752;2023-07-08T09:49:57;101700.22;;;28.80;44.40
46534;BME280;32260;52.008;4.752;2023-07-08T09:52:24;101697.72;;;28.88;44.56
46534;BME280;32260;52.008;4.752;2023-07-08T09:54:50;101698.06;;;28.95;43.07
46534;BME280;32260;52.008;4.752;2023-07-08T09:59:57;101698.81;;;29.18;44.04
46534;BME280;32260;52.008;4.752;2023-07-08T10:02:32;101697.03;;;29.28;43.65
46534;BME280;32260;52.008;4.752;2023-07-08T10:05:42;101692.06;;;29.33;43.19
46534;BME280;32260;52.008;4.752;2023-07-08T10:07:59;101693.00;;;29.44;43.26
46534;BME280;32260;52.008;4.752;2023-07-08T10:10:30;101692.19;;;29.53;43.06
46534;BME280;32260;52.008;4.752;2023-07-08T10:13:02;101694.84;;;29.64;43.11
46534;BME280;32260;52.008;4.752;2023-07-08T10:15:38;101692.03;;;29.76;42.29
46534;BME280;32260;52.008;4.752;2023-07-08T10:18:12;101693.22;;;29.83;41.52
46534;BME280;32260;52.008;4.752;2023-07-08T10:26:32;101683.03;;;30.16;42.02
46534;BME280;32260;52.008;4.752;2023-07-08T10:29:12;101677.28;;;30.19;41.82
46534;BME280;32260;52.008;4.752;2023-07-08T10:31:58;101687.38;;;30.28;40.47
46534;BME280;32260;52.008;4.752;2023-07-08T10:37:22;101698.09;;;30.51;41.49
46534;BME280;32260;52.008;4.752;2023-07-08T10:46:09;101693.81;;;30.88;39.71
46534;BME280;32260;52.008;4.752;2023-07-08T10:52:50;101695.59;;;31.08;38.39
46534;BME280;32260;52.008;4.752;2023-07-08T10:54:44;101690.38;;;31.15;37.79
46534;BME280;32260;52.008;4.752;2023-07-08T10:57:30;101690.53;;;31.23;39.68
46534;BME280;32260;52.008;4.752;2023-07-08T11:02:52;101689.19;;;31.37;39.62
46534;BME280;32260;52.008;4.752;2023-07-08T11:10:46;101682.81;;;31.66;38.04
46534;BME280;32260;52.008;4.752;2023-07-08T11:13:18;101673.84;;;31.74;38.83
46534;BME280;32260;52.008;4.752;2023-07-08T11:21:10;101686.25;;;32.06;37.98
46534;BME280;32260;52.008;4.752;2023-07-08T11:23:43;101685.19;;;32.17;38.21
46534;BME280;32260;52.008;4.752;2023-07-08T11:26:26;101684.13;;;32.28;38.21
46534;BME280;32260;52.008;4.752;2023-07-08T11:28:56;101679.06;;;32.33;37.82
46534;BME280;32260;52.008;4.752;2023-07-08T11:31:24;101681.88;;;32.41;37.69
46534;BME280;32260;52.008;4.752;2023-07-08T11:33:51;101675.63;;;32.49;38.20
46534;BME280;32260;52.008;4.752;2023-07-08T11:36:19;101675.56;;;32.58;38.29
46534;BME280;32260;52.008;4.752;2023-07-08T11:38:49;101677.56;;;32.66;39.02
46534;BME280;32260;52.008;4.752;2023-07-08T11:41:19;101674.44;;;32.79;37.39
46534;BME280;32260;52.008;4.752;2023-07-08T11:43:59;101668.53;;;32.92;37.02
46534;BME280;32260;52.008;4.752;2023-07-08T11:46:28;101674.56;;;32.96;36.14
46534;BME280;32260;52.008;4.752;2023-07-08T11:49:00;101669.16;;;33.04;35.85
46534;BME280;32260;52.008;4.752;2023-07-08T11:51:31;101664.59;;;33.13;36.76
46534;BME280;32260;52.008;4.752;2023-07-08T11:57:01;101665.59;;;33.30;33.97
46534;BME280;32260;52.008;4.752;2023-07-08T11:59:32;101661.91;;;33.39;35.49
46534;BME280;32260;52.008;4.752;2023-07-08T12:02:19;101649.91;;;33.48;35.36
46534;BME280;32260;52.008;4.752;2023-07-08T12:05:03;101649.28;;;33.54;35.19
46534;BME280;32260;52.008;4.752;2023-07-08T12:10:32;101650.78;;;33.75;35.42
46534;BME280;32260;52.008;4.752;2023-07-08T12:12:59;101650.28;;;33.80;35.91
46534;BME280;32260;52.008;4.752;2023-07-08T12:15:31;101641.91;;;33.90;36.01
46534;BME280;32260;52.008;4.752;2023-07-08T12:18:02;101637.84;;;34.02;35.40
46534;BME280;32260;52.008;4.752;2023-07-08T12:20:37;101634.81;;;34.13;33.71
46534;BME280;32260;52.008;4.752;2023-07-08T12:23:11;101638.94;;;34.17;34.85
46534;BME280;32260;52.008;4.752;2023-07-08T12:25:37;101644.13;;;34.29;34.66
46534;BME280;32260;52.008;4.752;2023-07-08T12:28:03;101635.56;;;34.40;35.21
46534;BME280;32260;52.008;4.752;2023-07-08T12:30:31;101642.13;;;34.47;34.02
46534;BME280;32260;52.008;4.752;2023-07-08T12:33:00;101630.09;;;34.57;34.58
46534;BME280;32260;52.008;4.752;2023-07-08T12:35:29;101625.28;;;34.67;34.38
46534;BME280;32260;52.008;4.752;2023-07-08T12:37:59;101623.56;;;34.82;34.75
46534;BME280;32260;52.008;4.752;2023-07-08T12:40:28;101625.66;;;34.97;34.34
46534;BME280;32260;52.008;4.752;2023-07-08T12:42:56;101621.69;;;35.08;33.75
46534;BME280;32260;52.008;4.752;2023-07-08T12:45:24;101623.59;;;35.15;33.63
46534;BME280;32260;52.008;4.752;2023-07-08T12:47:51;101625.47;;;35.23;33.66
46534;BME280;32260;52.008;4.752;2023-07-08T12:50:17;101618.03;;;35.32;33.55
46534;BME280;32260;52.008;4.752;2023-07-08T12:52:44;101622.88;;;35.38;32.26
46534;BME280;32260;52.008;4.752;2023-07-08T12:55:12;101621.78;;;35.47;33.84
46534;BME280;32260;52.008;4.752;2023-07-08T12:57:42;101623.16;;;35.52;32.80
46534;BME280;32260;52.008;4.752;2023-07-08T13:00:29;101622.09;;;35.61;33.46
46534;BME280;32260;52.008;4.752;2023-07-08T13:03:02;101618.97;;;35.72;33.70
46534;BME280;32260;52.008;4.752;2023-07-08T13:05:31;101617.03;;;35.81;32.07
46534;BME280;32260;52.008;4.752;2023-07-08T13:07:57;101612.53;;;35.88;31.58
46534;BME280;32260;52.008;4.752;2023-07-08T13:10:26;101619.56;;;35.99;30.89
46534;BME280;32260;52.008;4.752;2023-07-08T13:13:00;101616.72;;;36.16;30.15
46534;BME280;32260;52.008;4.752;2023-07-08T13:15:33;101620.56;;;36.30;30.89
46534;BME280;32260;52.008;4.752;2023-07-08T13:18:00;101623.44;;;36.36;28.67
46534;BME280;32260;52.008;4.752;2023-07-08T13:20:27;101615.06;;;36.38;29.24
46534;BME280;32260;52.008;4.752;2023-07-08T13:23:03;101618.03;;;36.51;30.01
46534;BME280;32260;52.008;4.752;2023-07-08T13:25:31;101613.38;;;36.52;30.15
46534;BME280;32260;52.008;4.752;2023-07-08T13:28:13;101611.53;;;36.67;30.36
46534;BME280;32260;52.008;4.752;2023-07-08T13:30:57;101616.91;;;36.84;29.97
46534;BME280;32260;52.008;4.752;2023-07-08T13:33:30;101611.63;;;36.97;29.97
46534;BME280;32260;52.008;4.752;2023-07-08T13:35:56;101604.31;;;37.04;29.54
46534;BME280;32260;52.008;4.752;2023-07-08T13:38:25;101615.84;;;37.08;29.21
46534;BME280;32260;52.008;4.752;2023-07-08T13:40:56;101607.28;;;37.18;29.46
46534;BME280;32260;52.008;4.752;2023-07-08T13:43:25;101613.78;;;37.25;29.16
46534;BME280;32260;52.008;4.752;2023-07-08T13:45:52;101608.84;;;37.35;28.44
46534;BME280;32260;52.008;4.752;2023-07-08T13:48:29;101603.06;;;37.45;26.32
46534;BME280;32260;52.008;4.752;2023-07-08T13:51:02;101603.91;;;37.46;28.93
46534;BME280;32260;52.008;4.752;2023-07-08T13:53:53;101611.69;;;37.57;28.38
46534;BME280;32260;52.008;4.752;2023-07-08T13:56:23;101606.56;;;37.54;27.62
46534;BME280;32260;52.008;4.752;2023-07-08T13:58:53;101607.81;;;37.66;28.26
46534;BME280;32260;52.008;4.752;2023-07-08T14:01:23;101617.31;;;37.79;29.79